Time;durP1;ratioP1;P1;durP2;ratioP2;P2;SDS_P1;SDS_P2;PMS_P1;PMS_P2;Temp;Humidity;BMP_temperature;BMP_pressure;BME280_temperature;BME280_humidity;BME280_pressure;Samples;Min_cycle;Max_cycle;Signal;HPM_P1;HPM_P2
2022/01/10 00:00:04;;;;;;;30.17;14.27;;;-1.50;99.90;;;;;;5091914;28;20356;-78
2022/01/10 00:02:29;;;;;;;29.17;14.18;;;-1.50;99.90;;;;;;5091861;28;20046;-78
2022/01/10 00:04:55;;;;;;;26.90;14.68;;;-1.50;99.90;;;;;;5091723;28;20020;-78
2022/01/10 00:07:21;;;;;;;26.27;14.95;;;-1.50;99.90;;;;;;5091486;28;20119;-80
2022/01/10 00:09:46;;;;;;;26.52;14.52;;;-1.50;99.90;;;;;;5092218;28;20111;-81
2022/01/10 00:12:12;;;;;;;31.42;15.15;;;-1.40;99.90;;;;;;5092244;28;20498;-80
2022/01/10 00:14:38;;;;;;;26.35;14.45;;;-1.40;99.90;;;;;;5091773;28;20024;-80
2022/01/10 00:17:04;;;;;;;35.38;14.65;;;-1.40;99.90;;;;;;5092764;28;20058;-80
2022/01/10 00:19:30;;;;;;;31.30;15.70;;;-1.40;99.90;;;;;;5091830;28;20598;-78
2022/01/10 00:21:56;;;;;;;29.85;15.82;;;-1.40;99.90;;;;;;5091559;28;20119;-78
2022/01/10 00:24:22;;;;;;;29.83;16.05;;;-1.40;99.90;;;;;;5091531;28;20028;-78
2022/01/10 00:26:48;;;;;;;27.08;14.90;;;-1.50;99.90;;;;;;5092514;28;20021;-80
2022/01/10 00:29:14;;;;;;;26.40;15.35;;;-1.40;99.90;;;;;;5090959;28;20119;-78
2022/01/10 00:31:40;;;;;;;26.48;14.38;;;-1.40;99.90;;;;;;5091299;28;20028;-79
2022/01/10 00:34:05;;;;;;;30.02;14.98;;;-1.40;99.90;;;;;;5091701;28;20059;-77
2022/01/10 00:36:31;;;;;;;32.83;16.17;;;-1.40;99.90;;;;;;5091451;28;20024;-79
2022/01/10 00:38:57;;;;;;;30.45;16.10;;;-1.40;99.90;;;;;;5091604;28;20492;-80
2022/01/10 00:41:23;;;;;;;23.58;14.75;;;-1.40;99.90;;;;;;5091415;28;20106;-78
2022/01/10 00:43:50;;;;;;;28.75;16.02;;;-1.40;99.90;;;;;;5091539;28;20020;-79
2022/01/10 00:46:17;;;;;;;27.08;15.32;;;-1.30;99.90;;;;;;5091135;28;20634;-78
2022/01/10 00:48:43;;;;;;;27.95;14.32;;;-1.30;99.90;;;;;;5091539;28;20027;-78
2022/01/10 00:51:09;;;;;;;23.33;13.68;;;-1.40;99.90;;;;;;5091650;28;20074;-78
2022/01/10 00:53:35;;;;;;;28.58;14.88;;;-1.40;99.90;;;;;;5091155;28;20036;-78
2022/01/10 00:56:01;;;;;;;26.55;14.43;;;-1.40;99.90;;;;;;5091278;28;20016;-79
2022/01/10 00:58:27;;;;;;;28.05;14.30;;;-1.40;99.90;;;;;;5091186;28;20028;-80
2022/01/10 01:00:52;;;;;;;31.50;14.77;;;-1.40;99.90;;;;;;5092666;28;20024;-79
2022/01/10 01:03:18;;;;;;;29.52;15.25;;;-1.40;99.90;;;;;;5092468;28;20040;-79
2022/01/10 01:05:45;;;;;;;25.33;14.98;;;-1.40;99.90;;;;;;5092536;28;20016;-80
2022/01/10 01:08:12;;;;;;;23.63;14.63;;;-1.40;99.90;;;;;;5091223;28;20028;-79
2022/01/10 01:26:36;;;;;;;22.33;13.23;;;-1.40;99.90;;;;;;5092046;28;20028;-79
2022/01/10 01:29:03;;;;;;;25.55;14.77;;;-1.40;99.90;;;;;;5090677;28;20051;-78
2022/01/10 01:31:29;;;;;;;30.73;14.85;;;-1.30;99.90;;;;;;5093968;28;20031;-78
2022/01/10 01:33:54;;;;;;;26.02;14.48;;;-1.40;99.90;;;;;;5094597;28;20032;-79
2022/01/10 01:36:23;;;;;;;25.27;14.75;;;-1.40;99.90;;;;;;5094402;28;20028;-80
2022/01/10 01:38:50;;;;;;;24.98;14.30;;;-1.30;99.90;;;;;;5094349;28;20028;-80
2022/01/10 01:41:37;;;;;;;27.65;14.45;;;-1.30;99.90;;;;;;5094278;28;20027;-79
2022/01/10 01:44:04;;;;;;;29.58;14.93;;;-1.40;99.90;;;;;;5095893;28;20090;-78
2022/01/10 01:46:29;;;;;;;27.58;14.73;;;-1.40;99.90;;;;;;5094174;28;20035;-78
2022/01/10 01:48:56;;;;;;;28.98;15.75;;;-1.40;99.90;;;;;;5095870;28;20091;-80
2022/01/10 01:51:22;;;;;;;26.55;15.15;;;-1.40;99.90;;;;;;5094024;28;20463;-78
2022/01/10 01:53:49;;;;;;;26.95;14.93;;;-1.40;99.90;;;;;;5094471;28;20032;-79
2022/01/10 01:56:16;;;;;;;33.10;15.27;;;-1.40;99.90;;;;;;5094380;28;20020;-81
2022/01/10 01:58:43;;;;;;;28.70;14.40;;;-1.40;99.90;;;;;;5094448;28;20032;-79
2022/01/10 02:01:10;;;;;;;30.25;15.95;;;-1.40;99.90;;;;;;5094209;28;20110;-78
2022/01/10 02:03:41;;;;;;;26.50;14.68;;;-1.40;99.90;;;;;;5093916;28;20027;-78
2022/01/10 02:06:07;;;;;;;33.53;15.80;;;-1.40;99.90;;;;;;5093979;28;20050;-78
2022/01/10 02:08:34;;;;;;;29.38;15.85;;;-1.40;99.90;;;;;;5094054;28;20027;-79
2022/01/10 02:11:01;;;;;;;27.75;14.82;;;-1.40;99.90;;;;;;5095214;28;20379;-78
2022/01/10 02:13:27;;;;;;;27.05;14.80;;;-1.40;99.90;;;;;;5094867;28;20043;-79
2022/01/10 02:16:02;;;;;;;30.08;16.35;;;-1.40;99.90;;;;;;5093845;28;20024;-78
2022/01/10 02:18:28;;;;;;;30.77;17.15;;;-1.40;99.90;;;;;;5094083;28;20035;-79
2022/01/10 02:20:57;;;;;;;28.20;15.68;;;-1.30;99.90;;;;;;5093636;28;20032;-79
2022/01/10 02:23:23;;;;;;;31.13;16.45;;;-1.30;99.90;;;;;;5093932;28;20035;-79
2022/01/10 02:25:49;;;;;;;32.78;15.98;;;-1.40;99.90;;;;;;5093460;28;20031;-79
2022/01/10 02:28:15;;;;;;;31.65;17.00;;;-1.40;99.90;;;;;;5093255;28;20051;-78
2022/01/10 02:30:41;;;;;;;31.08;17.40;;;-1.40;99.90;;;;;;5093761;28;20415;-79
2022/01/10 02:33:08;;;;;;;24.83;16.17;;;-1.40;99.90;;;;;;5093235;28;20040;-80
2022/01/10 02:35:54;;;;;;;32.33;16.60;;;-1.40;99.90;;;;;;5093126;28;20020;-79
2022/01/10 02:38:20;;;;;;;35.05;17.38;;;-1.30;99.90;;;;;;5094416;28;20506;-79
2022/01/10 02:40:47;;;;;;;28.33;17.40;;;-1.30;99.90;;;;;;5092484;28;20120;-78
2022/01/10 02:43:13;;;;;;;29.17;15.98;;;-1.40;99.90;;;;;;5092456;28;20027;-78
2022/01/10 02:45:39;;;;;;;29.80;17.75;;;-1.40;99.90;;;;;;5092865;28;20024;-78
2022/01/10 02:48:05;;;;;;;27.73;17.05;;;-1.40;99.90;;;;;;5093018;28;20016;-79
2022/01/10 02:50:30;;;;;;;33.13;17.30;;;-1.40;99.90;;;;;;5092921;28;20021;-79
2022/01/10 02:52:56;;;;;;;27.77;15.73;;;-1.40;99.90;;;;;;5093046;28;20085;-80
2022/01/10 02:55:22;;;;;;;29.65;16.13;;;-1.40;99.90;;;;;;5092978;28;20051;-81
2022/01/10 02:57:47;;;;;;;27.65;16.67;;;-1.40;99.90;;;;;;5092683;28;20632;-80
2022/01/10 03:00:17;;;;;;;27.85;16.35;;;-1.40;99.90;;;;;;5092956;28;20371;-80
2022/01/10 03:02:44;;;;;;;30.40;16.67;;;-1.40;99.90;;;;;;5093082;28;20024;-80
2022/01/10 03:05:10;;;;;;;27.90;15.80;;;-1.40;99.90;;;;;;5093020;28;20046;-79
2022/01/10 03:07:37;;;;;;;31.45;16.10;;;-1.40;99.90;;;;;;5093812;28;20020;-80
2022/01/10 03:10:05;;;;;;;25.90;15.65;;;-1.40;99.90;;;;;;5092999;28;20263;-80
2022/01/10 03:12:31;;;;;;;32.63;16.38;;;-1.50;99.90;;;;;;5092210;28;20044;-78
2022/01/10 03:15:00;;;;;;;28.75;16.00;;;-1.50;99.90;;;;;;5092594;28;20055;-80
2022/01/10 03:17:26;;;;;;;26.35;14.80;;;-1.50;99.90;;;;;;5092507;28;20035;-79
2022/01/10 03:19:53;;;;;;;29.13;17.42;;;-1.50;99.90;;;;;;5092686;28;20197;-78
2022/01/10 03:22:18;;;;;;;30.90;16.55;;;-1.50;99.90;;;;;;5093650;28;20153;-79
2022/01/10 03:24:44;;;;;;;26.48;14.70;;;-1.50;99.90;;;;;;5092355;28;20684;-78
2022/01/10 03:27:10;;;;;;;29.40;15.80;;;-1.50;99.90;;;;;;5093215;28;20051;-80
2022/01/10 03:29:36;;;;;;;28.08;15.98;;;-1.50;99.90;;;;;;5092289;28;20379;-78
2022/01/10 03:32:02;;;;;;;24.75;14.43;;;-1.50;99.90;;;;;;5091912;28;20020;-79
2022/01/10 03:34:29;;;;;;;26.83;15.07;;;-1.50;99.90;;;;;;5091811;28;20169;-79
2022/01/10 03:36:54;;;;;;;26.80;14.63;;;-1.50;99.90;;;;;;5092018;28;20487;-80
2022/01/10 03:39:21;;;;;;;28.20;16.05;;;-1.50;99.90;;;;;;5092354;28;20028;-78
2022/01/10 03:41:46;;;;;;;25.45;14.35;;;-1.50;99.90;;;;;;5093620;28;20577;-79
2022/01/10 03:44:12;;;;;;;32.33;16.77;;;-1.50;99.90;;;;;;5091644;28;20103;-78
2022/01/10 03:46:38;;;;;;;29.10;16.30;;;-1.60;99.90;;;;;;5092278;28;20105;-79
2022/01/10 03:49:05;;;;;;;28.40;16.40;;;-1.60;99.90;;;;;;5092102;28;20058;-80
2022/01/10 03:51:30;;;;;;;26.75;15.70;;;-1.60;99.90;;;;;;5092007;28;20024;-79
2022/01/10 03:53:56;;;;;;;32.28;17.67;;;-1.70;99.90;;;;;;5093013;28;20038;-78
2022/01/10 03:56:24;;;;;;;25.75;16.15;;;-1.70;99.90;;;;;;5092089;28;20020;-78
2022/01/10 03:58:50;;;;;;;31.27;17.35;;;-1.70;99.90;;;;;;5091559;28;20097;-80
2022/01/10 04:01:16;;;;;;;30.00;18.63;;;-1.70;99.90;;;;;;5091620;28;20467;-81
2022/01/10 04:03:42;;;;;;;31.52;19.40;;;-1.70;99.90;;;;;;5091915;28;20070;-79
2022/01/10 04:06:09;;;;;;;27.95;19.30;;;-1.80;99.90;;;;;;5092857;28;20027;-81
2022/01/10 04:08:35;;;;;;;27.92;17.17;;;-1.70;99.90;;;;;;5091426;28;20024;-80
2022/01/10 04:11:01;;;;;;;28.45;17.75;;;-1.70;99.90;;;;;;5091635;28;20027;-78
2022/01/10 04:13:27;;;;;;;32.28;17.00;;;-1.70;99.90;;;;;;5091432;28;20052;-78
2022/01/10 04:15:53;;;;;;;26.95;16.95;;;-1.70;99.90;;;;;;5091339;28;20055;-78
2022/01/10 04:18:19;;;;;;;26.77;15.32;;;-1.60;99.90;;;;;;5091853;28;20052;-79
2022/01/10 04:20:46;;;;;;;27.88;15.95;;;-1.60;99.90;;;;;;5091505;28;20020;-79
2022/01/10 04:23:12;;;;;;;29.00;16.38;;;-1.60;99.90;;;;;;5091744;28;20053;-79
2022/01/10 04:25:39;;;;;;;26.73;14.52;;;-1.60;99.90;;;;;;5091274;28;20028;-78
2022/01/10 04:28:05;;;;;;;31.55;15.82;;;-1.60;99.90;;;;;;5091108;28;20040;-78
2022/01/10 04:30:31;;;;;;;25.05;15.57;;;-1.60;99.90;;;;;;5091225;28;20024;-78
2022/01/10 04:32:58;;;;;;;27.85;16.50;;;-1.60;99.90;;;;;;5091199;28;20043;-78
2022/01/10 04:35:25;;;;;;;26.83;14.93;;;-1.30;99.90;;;;;;5091558;28;20025;-78
2022/01/10 04:37:51;;;;;;;27.70;15.30;;;-1.60;99.90;;;;;;5092472;28;20375;-79
2022/01/10 04:40:17;;;;;;;32.50;16.08;;;-1.60;99.90;;;;;;5091314;28;20028;-80
2022/01/10 04:42:42;;;;;;;27.42;16.33;;;-1.50;99.90;;;;;;5091630;28;20024;-79
2022/01/10 04:45:09;;;;;;;26.88;15.00;;;-1.50;99.90;;;;;;5091171;28;20463;-80
2022/01/10 04:47:35;;;;;;;27.23;15.63;;;-1.50;99.90;;;;;;5092405;28;20059;-80
2022/01/10 04:52:30;;;;;;;25.30;15.52;;;-1.50;99.90;;;;;;5092121;28;20039;-79
2022/01/10 04:54:57;;;;;;;29.30;17.15;;;-1.50;99.90;;;;;;5092700;28;20417;-78
2022/01/10 04:57:23;;;;;;;32.55;15.88;;;-1.50;99.90;;;;;;5092288;28;20471;-78
2022/01/10 04:59:48;;;;;;;28.63;15.80;;;-1.50;99.90;;;;;;5091215;28;20024;-78
2022/01/10 05:02:14;;;;;;;29.40;17.08;;;-1.50;99.90;;;;;;5092160;28;20031;-79
2022/01/10 05:04:40;;;;;;;23.88;15.68;;;-1.50;99.90;;;;;;5091591;28;20094;-79
2022/01/10 05:07:06;;;;;;;31.80;16.63;;;-1.20;99.90;;;;;;5096633;28;20020;-79
2022/01/10 05:09:32;;;;;;;29.52;17.15;;;-1.40;99.90;;;;;;5095023;28;20073;-79
2022/01/10 05:11:58;;;;;;;32.85;17.80;;;-1.50;99.90;;;;;;5095066;28;20043;-79
2022/01/10 05:14:24;;;;;;;24.95;16.23;;;-1.40;99.90;;;;;;5095204;28;20054;-79
2022/01/10 05:16:50;;;;;;;24.70;15.20;;;-1.40;99.90;;;;;;5095000;28;20028;-79
2022/01/10 05:19:16;;;;;;;30.10;17.67;;;-1.40;99.90;;;;;;5094920;28;20592;-78
2022/01/10 05:21:42;;;;;;;26.52;16.17;;;-1.40;99.90;;;;;;5095009;28;20426;-78
2022/01/10 05:24:08;;;;;;;28.35;16.98;;;-1.40;99.90;;;;;;5095190;28;20464;-78
2022/01/10 05:26:34;;;;;;;29.30;15.57;;;-1.40;99.90;;;;;;5095867;28;20031;-80
2022/01/10 05:29:01;;;;;;;27.52;15.77;;;-1.40;99.90;;;;;;5094623;28;20036;-78
2022/01/10 05:31:28;;;;;;;27.70;15.00;;;-1.30;99.90;;;;;;5094493;28;20383;-79
2022/01/10 05:33:55;;;;;;;32.25;16.65;;;-1.40;99.90;;;;;;5094592;28;20446;-78
2022/01/10 05:36:21;;;;;;;26.52;15.10;;;-1.40;99.90;;;;;;5095752;28;20051;-79
2022/01/10 05:38:47;;;;;;;30.67;15.15;;;-1.30;99.90;;;;;;5094578;28;20063;-79
2022/01/10 05:41:12;;;;;;;28.83;16.42;;;-1.30;99.90;;;;;;5094570;28;20551;-81
2022/01/10 05:43:38;;;;;;;29.17;16.00;;;-1.40;99.90;;;;;;5094458;28;20031;-79
2022/01/10 05:46:08;;;;;;;33.00;15.93;;;-1.40;99.90;;;;;;5095448;28;20028;-78
2022/01/10 05:48:35;;;;;;;27.23;15.80;;;-1.40;99.90;;;;;;5094148;28;20042;-79
2022/01/10 05:51:01;;;;;;;30.70;15.88;;;-1.40;99.90;;;;;;5094296;28;20030;-78
2022/01/10 05:53:27;;;;;;;25.98;15.93;;;-1.30;99.90;;;;;;5094303;28;20032;-79
2022/01/10 05:55:53;;;;;;;30.02;16.50;;;-1.30;99.90;;;;;;5094075;28;20122;-79
2022/01/10 05:58:19;;;;;;;26.23;15.38;;;-1.30;99.90;;;;;;5094202;28;20452;-78
2022/01/10 06:00:46;;;;;;;29.35;15.77;;;-1.40;99.90;;;;;;5094017;28;20020;-80
2022/01/10 06:03:12;;;;;;;27.92;16.15;;;-1.30;99.90;;;;;;5094161;28;20016;-78
2022/01/10 06:05:38;;;;;;;25.98;14.80;;;-1.30;99.90;;;;;;5094137;28;20077;-78
2022/01/10 06:08:06;;;;;;;22.85;14.75;;;-0.70;99.90;;;;;;5094961;28;20383;-78
2022/01/10 06:10:32;;;;;;;26.60;15.57;;;-1.30;99.90;;;;;;5093907;28;20368;-78
2022/01/10 06:12:58;;;;;;;28.70;15.75;;;-1.30;99.90;;;;;;5095122;28;20040;-80
2022/01/10 06:15:25;;;;;;;29.33;16.38;;;-1.30;99.90;;;;;;5094662;28;20101;-78
2022/01/10 06:17:51;;;;;;;24.85;16.02;;;-1.30;99.90;;;;;;5093824;28;20352;-77
2022/01/10 06:20:18;;;;;;;25.67;16.83;;;-1.40;99.90;;;;;;5094173;28;20020;-78
2022/01/10 06:22:44;;;;;;;27.23;16.60;;;-1.30;99.90;;;;;;5093973;28;20778;-78
2022/01/10 06:25:14;;;;;;;30.67;15.43;;;-1.40;99.90;;;;;;5093726;28;20028;-79
2022/01/10 06:27:40;;;;;;;24.20;13.68;;;-1.40;99.90;;;;;;5094675;28;20051;-77
2022/01/10 06:30:06;;;;;;;22.63;14.38;;;-1.40;99.90;;;;;;5093671;28;20032;-80
2022/01/10 06:32:32;;;;;;;24.92;14.30;;;-1.40;99.90;;;;;;5095125;28;20074;-80
2022/01/10 06:34:57;;;;;;;26.77;14.45;;;-1.40;99.90;;;;;;5092974;28;20433;-80
2022/01/10 06:37:24;;;;;;;28.75;15.07;;;-1.30;99.90;;;;;;5093024;28;20111;-80
2022/01/10 06:39:50;;;;;;;24.83;15.00;;;-1.20;99.90;;;;;;5093881;28;20624;-78
2022/01/10 06:42:16;;;;;;;22.58;14.18;;;-0.90;99.90;;;;;;5095790;28;20475;-79
2022/01/10 06:44:42;;;;;;;26.30;13.65;;;-1.00;99.90;;;;;;5093057;28;20111;-80
2022/01/10 06:47:08;;;;;;;27.08;15.30;;;-1.10;99.90;;;;;;5093428;28;20063;-79
2022/01/10 06:49:33;;;;;;;27.38;13.70;;;-1.10;99.90;;;;;;5093825;28;20033;-79
2022/01/10 06:51:59;;;;;;;20.90;13.57;;;-1.20;99.90;;;;;;5093809;28;20383;-79
2022/01/10 06:54:25;;;;;;;20.88;13.85;;;-1.20;99.90;;;;;;5093590;28;20387;-79
2022/01/10 06:56:51;;;;;;;22.05;15.27;;;-1.20;99.90;;;;;;5093406;28;20024;-79
2022/01/10 06:59:17;;;;;;;23.88;13.77;;;-1.30;99.90;;;;;;5093307;28;20024;-78
2022/01/10 07:01:44;;;;;;;21.40;13.77;;;-1.30;99.90;;;;;;5093315;28;20020;-78
2022/01/10 07:04:09;;;;;;;26.25;14.38;;;-1.20;99.90;;;;;;5093452;28;20122;-79
2022/01/10 07:06:35;;;;;;;34.13;19.80;;;-1.30;99.90;;;;;;5094204;28;20062;-78
2022/01/10 07:09:01;;;;;;;24.77;15.60;;;-1.30;99.90;;;;;;5093320;28;20028;-79
2022/01/10 07:11:27;;;;;;;26.70;15.45;;;-1.30;99.90;;;;;;5093182;28;20032;-79
2022/01/10 07:13:53;;;;;;;27.90;15.57;;;-1.20;99.90;;;;;;5092888;28;20039;-79
2022/01/10 07:16:19;;;;;;;26.83;14.90;;;-1.10;99.90;;;;;;5094100;28;20024;-79
2022/01/10 07:18:45;;;;;;;28.85;16.58;;;-1.20;99.90;;;;;;5093302;28;20085;-78
2022/01/10 07:21:10;;;;;;;25.63;15.38;;;-1.30;99.90;;;;;;5093063;28;20032;-79
2022/01/10 07:23:36;;;;;;;27.08;15.50;;;-1.30;99.90;;;;;;5094370;28;20016;-79
2022/01/10 07:26:02;;;;;;;29.67;16.52;;;-1.30;99.90;;;;;;5093152;28;20039;-79
2022/01/10 07:28:28;;;;;;;31.77;18.02;;;-1.30;99.90;;;;;;5092053;28;20044;-79
2022/01/10 07:30:54;;;;;;;41.80;17.77;;;-1.30;99.90;;;;;;5094031;28;20024;-79
2022/01/10 07:33:20;;;;;;;32.38;17.88;;;-1.20;99.90;;;;;;5092963;28;20043;-80
2022/01/10 07:35:45;;;;;;;39.22;20.80;;;-1.00;99.90;;;;;;5092780;28;20023;-78
2022/01/10 07:38:11;;;;;;;28.75;17.02;;;-1.20;99.90;;;;;;5092387;28;20028;-79
2022/01/10 07:40:37;;;;;;;34.53;18.58;;;-1.20;99.90;;;;;;5093039;28;20024;-80
2022/01/10 07:43:02;;;;;;;33.45;16.88;;;-1.20;99.90;;;;;;5092623;28;20020;-80
2022/01/10 07:45:28;;;;;;;26.38;16.27;;;-0.80;99.90;;;;;;5092184;28;20024;-79
2022/01/10 07:47:54;;;;;;;32.25;16.42;;;-1.00;99.90;;;;;;5093310;28;20047;-79
2022/01/10 07:50:20;;;;;;;30.23;16.98;;;-1.10;99.90;;;;;;5092459;28;20047;-80
2022/01/10 07:52:45;;;;;;;30.60;15.98;;;-1.10;99.90;;;;;;5092259;28;20036;-78
2022/01/10 07:55:11;;;;;;;28.73;16.05;;;-1.10;99.90;;;;;;5092300;28;20353;-79
2022/01/10 07:57:37;;;;;;;28.98;15.68;;;-1.10;99.90;;;;;;5092121;28;20024;-79
2022/01/10 08:00:05;;;;;;;27.50;15.93;;;-1.10;99.90;;;;;;5092255;28;20349;-79
2022/01/10 08:02:30;;;;;;;28.88;15.15;;;-1.10;99.90;;;;;;5092058;28;20388;-79
2022/01/10 08:04:56;;;;;;;26.85;15.95;;;-1.00;99.90;;;;;;5091977;28;20031;-79
2022/01/10 08:07:22;;;;;;;29.95;15.93;;;-1.10;99.90;;;;;;5091740;28;20470;-79
2022/01/10 08:09:47;;;;;;;28.90;16.40;;;-1.00;99.90;;;;;;5093280;28;20016;-81
2022/01/10 08:12:13;;;;;;;29.33;14.32;;;-1.00;99.90;;;;;;5091858;28;20036;-79
2022/01/10 08:14:39;;;;;;;29.95;16.45;;;-1.00;99.90;;;;;;5092027;28;20039;-79
2022/01/10 08:17:04;;;;;;;30.48;16.25;;;-0.90;99.90;;;;;;5091652;28;20077;-79
2022/01/10 08:19:33;;;;;;;26.55;16.10;;;-0.90;99.90;;;;;;5092093;28;20387;-80
2022/01/10 08:22:00;;;;;;;31.10;15.77;;;-0.90;99.90;;;;;;5093215;28;20044;-79
2022/01/10 08:24:26;;;;;;;28.90;15.80;;;-0.90;99.90;;;;;;5092135;28;20024;-80
2022/01/10 08:26:53;;;;;;;27.92;15.15;;;-0.70;99.90;;;;;;5091346;28;20356;-79
2022/01/10 08:29:19;;;;;;;29.33;16.10;;;-0.80;99.90;;;;;;5093156;28;20035;-78
2022/01/10 08:31:45;;;;;;;32.92;22.42;;;-0.70;99.90;;;;;;5092128;28;20016;-78
2022/01/10 08:34:12;;;;;;;29.30;16.90;;;-0.60;99.90;;;;;;5091483;28;20387;-77
2022/01/10 08:36:38;;;;;;;28.77;16.35;;;-0.60;99.90;;;;;;5091820;28;20078;-78
2022/01/10 08:39:05;;;;;;;24.85;15.15;;;-0.40;99.90;;;;;;5091650;28;20028;-79
2022/01/10 08:41:32;;;;;;;28.02;15.27;;;-0.40;99.90;;;;;;5096183;28;20032;-83
2022/01/10 08:43:57;;;;;;;29.08;17.42;;;0.00;99.90;;;;;;5096509;28;20510;-79
2022/01/10 08:46:23;;;;;;;32.33;17.77;;;0.40;99.90;;;;;;5096944;28;20055;-79
2022/01/10 08:48:50;;;;;;;27.38;17.98;;;0.40;99.90;;;;;;5096240;28;20023;-80
2022/01/10 08:51:16;;;;;;;27.70;16.35;;;0.20;99.90;;;;;;5096016;28;20085;-80
2022/01/10 08:53:42;;;;;;;32.75;18.15;;;0.20;99.90;;;;;;5097042;28;20039;-79
2022/01/10 08:56:08;;;;;;;33.08;19.13;;;0.70;99.90;;;;;;5095395;28;20080;-79
2022/01/10 08:58:34;;;;;;;29.75;18.10;;;0.60;99.90;;;;;;5095681;28;20024;-80
2022/01/10 09:01:09;;;;;;;24.17;14.25;;;0.50;99.90;;;;;;5095659;28;20433;-80
2022/01/10 09:03:38;;;;;;;31.17;16.55;;;0.40;99.90;;;;;;5095885;28;20066;-79
2022/01/10 09:06:03;;;;;;;31.42;17.00;;;0.40;99.90;;;;;;5095133;28;20054;-79
2022/01/10 09:08:35;;;;;;;29.20;14.68;;;0.30;99.90;;;;;;5095062;28;20059;-81
2022/01/10 09:11:02;;;;;;;26.17;15.57;;;0.30;99.90;;;;;;5096715;28;20020;-82
2022/01/10 09:13:28;;;;;;;24.25;15.55;;;0.60;99.90;;;;;;5096216;28;20040;-82
2022/01/10 09:15:54;;;;;;;33.63;16.38;;;0.40;99.90;;;;;;5096738;28;20425;-80
2022/01/10 09:18:20;;;;;;;29.77;15.73;;;0.50;99.90;;;;;;5096272;28;20024;-83
2022/01/10 09:20:46;;;;;;;23.02;13.63;;;0.50;99.90;;;;;;5096256;28;20020;-82
2022/01/10 09:23:12;;;;;;;25.80;14.52;;;0.50;99.90;;;;;;5096219;28;20027;-80
2022/01/10 09:25:38;;;;;;;29.48;17.02;;;0.60;99.90;;;;;;5095381;28;20030;-82
2022/01/10 09:28:04;;;;;;;26.83;15.70;;;0.70;99.90;;;;;;5096197;28;20131;-80
2022/01/10 09:30:30;;;;;;;28.70;16.00;;;0.60;99.90;;;;;;5095425;28;20024;-81
2022/01/10 09:32:57;;;;;;;32.25;15.15;;;0.70;99.90;;;;;;5094980;28;20039;-81
2022/01/10 09:35:23;;;;;;;24.13;14.65;;;0.70;99.90;;;;;;5094921;28;20020;-79
2022/01/10 09:37:50;;;;;;;24.02;15.27;;;0.70;99.90;;;;;;5094751;28;20028;-80
2022/01/10 09:40:18;;;;;;;25.75;15.73;;;0.80;99.90;;;;;;5094865;28;20028;-78
2022/01/10 09:42:44;;;;;;;24.73;14.80;;;0.80;99.90;;;;;;5095693;28;20077;-82
2022/01/10 09:45:10;;;;;;;22.00;14.40;;;0.80;99.90;;;;;;5096009;28;20463;-82
2022/01/10 09:47:36;;;;;;;23.75;13.57;;;0.80;99.90;;;;;;5097072;28;20035;-84
2022/01/10 09:50:06;;;;;;;24.02;14.95;;;0.80;99.90;;;;;;5097108;28;20024;-85
2022/01/10 09:52:32;;;;;;;25.15;13.82;;;0.90;99.90;;;;;;5095621;28;20035;-84
2022/01/10 09:54:58;;;;;;;23.02;14.05;;;0.90;99.90;;;;;;5095521;28;20026;-81
2022/01/10 09:57:24;;;;;;;23.90;13.93;;;0.90;99.90;;;;;;5096826;28;20083;-84
2022/01/10 09:59:50;;;;;;;24.48;14.77;;;1.70;99.90;;;;;;5096016;28;20020;-82
2022/01/10 10:02:16;;;;;;;22.52;14.75;;;2.60;99.90;;;;;;5094567;28;20051;-81
2022/01/10 10:04:43;;;;;;;20.45;13.30;;;3.30;99.90;;;;;;5094772;28;20035;-80
2022/01/10 10:07:10;;;;;;;23.83;13.70;;;3.60;99.90;;;;;;5094481;28;20028;-80
2022/01/10 10:09:35;;;;;;;26.00;14.48;;;3.80;99.90;;;;;;5094284;28;20027;-81
2022/01/10 10:12:03;;;;;;;19.33;12.23;;;4.00;99.90;;;;;;5094245;28;20016;-80
2022/01/10 10:14:29;;;;;;;20.58;11.27;;;3.90;99.90;;;;;;5095291;28;20032;-85
2022/01/10 10:16:57;;;;;;;20.92;12.13;;;3.80;99.90;;;;;;5094658;28;20016;-80
2022/01/10 10:19:26;;;;;;;22.67;13.30;;;3.80;99.90;;;;;;5094997;28;20020;-81
2022/01/10 10:21:53;;;;;;;21.30;12.60;;;3.90;99.90;;;;;;5094721;28;20016;-81
2022/01/10 10:24:19;;;;;;;20.35;13.30;;;4.00;99.90;;;;;;5093868;28;20020;-84
2022/01/10 10:26:46;;;;;;;24.90;13.93;;;4.20;99.90;;;;;;5094922;28;20352;-82
2022/01/10 10:29:14;;;;;;;21.13;13.23;;;4.30;99.90;;;;;;5095070;28;20127;-84
2022/01/10 10:31:52;;;;;;;20.38;12.55;;;4.00;99.90;;;;;;5093747;28;20024;-80
2022/01/10 10:34:20;;;;;;;19.83;11.93;;;3.70;99.90;;;;;;5092983;28;20059;-76
2022/01/10 10:36:58;;;;;;;21.33;12.90;;;3.50;99.90;;;;;;5094383;28;20548;-76
2022/01/10 10:39:26;;;;;;;21.58;12.55;;;3.10;99.90;;;;;;5094438;28;20020;-77
2022/01/10 10:41:58;;;;;;;20.00;11.40;;;3.00;99.90;;;;;;5094105;28;20042;-77
2022/01/10 10:44:24;;;;;;;20.20;9.98;;;2.80;99.90;;;;;;5092795;28;20387;-76
2022/01/10 10:46:51;;;;;;;12.10;7.40;;;3.00;99.90;;;;;;5092904;28;20016;-78
2022/01/10 10:49:19;;;;;;;19.90;11.90;;;3.00;99.90;;;;;;5092514;28;20426;-77
2022/01/10 10:51:50;;;;;;;19.67;11.23;;;3.10;99.90;;;;;;5093020;28;20477;-78
2022/01/10 10:54:17;;;;;;;10.32;7.15;;;3.30;99.90;;;;;;5092455;28;20028;-79
2022/01/10 10:56:44;;;;;;;10.15;6.55;;;3.30;99.90;;;;;;5093594;28;20031;-79
2022/01/10 10:59:13;;;;;;;7.65;5.40;;;3.40;99.90;;;;;;5092352;28;20114;-81
2022/01/10 11:01:40;;;;;;;10.65;5.43;;;3.80;99.90;;;;;;5092200;28;20115;-80
2022/01/10 11:04:09;;;;;;;3.28;1.60;;;3.80;99.90;;;;;;5091477;28;20020;-80
2022/01/10 11:06:36;;;;;;;0.88;0.82;;;4.20;99.90;;;;;;5092012;28;20108;-79
2022/01/10 11:09:06;;;;;;;0.55;0.55;;;4.50;99.90;;;;;;5092112;28;20100;-80
2022/01/10 11:11:32;;;;;;;0.80;0.80;;;4.70;99.90;;;;;;5093119;28;20110;-80
2022/01/10 11:14:00;;;;;;;0.60;0.40;;;4.80;99.40;;;;;;5092812;28;20040;-80
2022/01/10 11:16:26;;;;;;;0.73;0.50;;;4.90;99.10;;;;;;5093333;28;20495;-80
2022/01/10 11:18:53;;;;;;;1.30;0.90;;;5.20;99.80;;;;;;5091839;28;20050;-79
2022/01/10 11:21:19;;;;;;;0.93;0.60;;;5.10;98.80;;;;;;5093005;28;20020;-79
2022/01/10 11:23:46;;;;;;;2.47;0.80;;;5.20;98.30;;;;;;5091959;28;20479;-78
2022/01/10 11:26:13;;;;;;;0.80;0.65;;;5.30;97.40;;;;;;5091501;28;20073;-81
2022/01/10 11:28:54;;;;;;;0.65;0.60;;;5.40;96.60;;;;;;5091690;28;20130;-79
2022/01/10 11:31:28;;;;;;;2.92;0.93;;;5.40;95.70;;;;;;5091956;28;20031;-79
2022/01/10 11:33:55;;;;;;;1.35;0.90;;;5.60;95.80;;;;;;5091698;28;20031;-79
2022/01/10 11:36:24;;;;;;;1.65;0.93;;;5.70;95.30;;;;;;5091615;28;20062;-79
2022/01/10 11:39:07;;;;;;;0.60;0.30;;;5.80;94.80;;;;;;5091507;28;20641;-79
2022/01/10 11:41:33;;;;;;;0.50;0.50;;;5.90;94.50;;;;;;5091639;28;20035;-79
2022/01/10 11:44:18;;;;;;;80.05;29.63;;;5.70;94.10;;;;;;5092990;28;20023;-79
2022/01/10 11:46:48;;;;;;;24.30;11.50;;;5.70;94.40;;;;;;5091443;28;20046;-79
2022/01/10 11:49:15;;;;;;;30.58;14.55;;;5.60;94.80;;;;;;5091244;28;20463;-79
2022/01/10 11:51:45;;;;;;;42.50;20.27;;;5.60;94.60;;;;;;5092283;28;20391;-77
2022/01/10 11:54:11;;;;;;;60.47;26.23;;;5.50;94.90;;;;;;5091483;28;20071;-79
2022/01/10 11:56:48;;;;;;;24.67;9.15;;;5.50;94.90;;;;;;5091107;28;20062;-78
2022/01/10 11:59:33;;;;;;;5.50;2.60;;;5.50;95.00;;;;;;5091433;28;20425;-76
2022/01/10 12:02:09;;;;;;;0.73;0.70;;;5.40;95.10;;;;;;5091131;28;20077;-78
2022/01/10 12:04:40;;;;;;;2.95;0.80;;;5.30;95.20;;;;;;5091270;28;20375;-77
2022/01/10 12:07:10;;;;;;;2.92;1.02;;;5.30;95.30;;;;;;5092045;28;20028;-78
2022/01/10 12:09:36;;;;;;;1.83;1.33;;;5.30;95.30;;;;;;5092315;28;20020;-79
2022/01/10 12:12:04;;;;;;;0.63;0.55;;;5.20;95.20;;;;;;5092212;28;20119;-80
2022/01/10 12:14:31;;;;;;;0.70;0.60;;;5.20;95.60;;;;;;5092103;28;20042;-77
2022/01/10 12:16:58;;;;;;;0.70;0.70;;;5.20;95.60;;;;;;5092248;28;20016;-77
2022/01/10 12:19:25;;;;;;;0.60;0.60;;;5.10;95.80;;;;;;5091008;28;20028;-78
2022/01/10 12:21:51;;;;;;;0.82;0.75;;;5.10;95.80;;;;;;5091391;28;20021;-76
2022/01/10 12:24:18;;;;;;;1.48;1.10;;;5.10;95.90;;;;;;5092385;28;20016;-77
2022/01/10 12:26:44;;;;;;;1.00;1.00;;;5.10;95.80;;;;;;5090612;28;20391;-75
2022/01/10 12:29:12;;;;;;;0.80;0.80;;;5.10;95.60;;;;;;5090737;28;20059;-77
2022/01/10 12:31:39;;;;;;;0.85;0.55;;;5.10;95.20;;;;;;5090889;28;20502;-76
2022/01/10 12:34:08;;;;;;;1.70;0.82;;;5.10;95.30;;;;;;5092148;28;20032;-78
2022/01/10 12:36:35;;;;;;;5.88;0.60;;;5.10;94.90;;;;;;5090816;28;20476;-78
2022/01/10 12:39:06;;;;;;;0.95;0.50;;;5.10;94.90;;;;;;5092150;28;20456;-76
2022/01/10 12:41:32;;;;;;;0.73;0.47;;;5.10;94.90;;;;;;5092107;28;20020;-76
2022/01/10 12:43:59;;;;;;;1.00;1.00;;;5.10;94.50;;;;;;5090762;28;20020;-78
2022/01/10 12:46:30;;;;;;;0.70;0.70;;;5.10;94.60;;;;;;5091973;28;20055;-78
2022/01/10 12:48:55;;;;;;;2.25;1.67;;;5.10;94.40;;;;;;5092130;28;20443;-78